大阪空港の過去48時間の天気

大阪空港 (Osaka/Intl)

現在時刻: 9/23 06:25 JST (9/22 21:25 UTC) 以下の時間は現地時間です。

過去48時間のMETAR気象情報
時間 風向 風速(m/s) 視程 気温(℃) 湿度(%) 気圧(hPa) 天気現象
23 06:00 南南西 5 10km以上 27 84 1003 周辺でしゅう雨
23 05:00 3 10km以上 26 89 1004
22 20:00 東北東 7 10km以上 25 83 1008 周辺でしゅう雨
22 19:00 東北東 6 10km以上 25 83 1008
22 18:00 東北東 7 10km以上 25 83 1008
22 17:00 7 10km以上 24 89 1009
22 16:00 7 10km以上 24 94 1009 弱いしゅう雨
22 15:40 8 5000m 24 89 1010 しゅう雨 もや
22 15:00 東北東 9 10km以上 27 70 1009 周辺でしゅう雨
22 14:03 9 10km以上 27 70 1009
22 14:00 9 10km以上 27 70 1009
22 13:26 10 10km以上 27 66 1010
22 13:00 東北東 8 10km以上 28 66 1010
22 12:10 東北東 10 10km以上 27 66 1011
22 12:00 東北東 11 10km以上 28 62 1011
22 11:15 東北東 9 10km以上 27 66 1012
22 11:00 東北東 9 10km以上 27 66 1012
22 10:08 東北東 9 10km以上 25 74 1013
22 10:00 東北東 9 10km以上 25 69 1013
22 09:00 東北東 7 10km以上 25 69 1014
22 08:00 東北東 7 10km以上 24 69 1014
22 07:05 東北東 8 10km以上 24 69 1014
22 07:00 東北東 7 10km以上 24 69 1014
22 06:00 東北東 6 10km以上 23 73 1014
22 05:00 東北東 7 10km以上 23 73 1014
21 20:00 東北東 5 10km以上 23 78 1018
21 19:00 東北東 5 10km以上 23 73 1017
21 18:00 東北東 6 10km以上 23 78 1016
21 17:00 東北東 6 10km以上 23 78 1016
21 16:00 東北東 6 10km以上 23 78 1016
21 15:00 東北東 5 10km以上 24 74 1016
21 14:00 東北東 5 10km以上 24 74 1017
21 13:00 北東 3 10km以上 23 78 1017
21 12:00 北北東 2 10km以上 22 83 1018 周辺でしゅう雨
21 11:00 北北東 2 10km以上 22 83 1019
21 10:00 北東 2 10km以上 21 83 1019
21 09:00 2 10km以上 21 83 1019
21 08:00 北西 4 10km以上 19 94 1019
21 07:00 北北西 3 10km以上 19 88 1018
RJOO 222100Z 21009G24KT 120V250 9999 VCSH FEW008 SCT030 BKN/// 27/24 Q1003 RMK 1ST008 4CU030 A2964
RJOO 222000Z 18005KT 110V240 9999 FEW008 SCT015 BKN030 26/24 Q1004 RMK 1ST008 3CU015 5CU030 A2965
RJOO 221100Z 07013KT 9999 VCSH FEW009 SCT/// 25/22 Q1008 RMK 1ST009 A2977
RJOO 221000Z 07011KT 9999 FEW009 SCT050 BKN/// 25/22 Q1008 RMK 1ST009 3SC050 A2979
RJOO 220900Z 07014KT 9999 FEW006 SCT050 BKN/// 25/22 Q1008
RJOO 220800Z 08013KT 9999 FEW006 SCT050 BKN090 24/22 Q1009 RMK 1ST006 3SC050 6AC090 A2980
RJOO 220700Z 09014KT 9999 -SHRA FEW003 SCT020 BKN050 24/23 Q1009 RMK 1ST003 3CU020 6SC050 A2982
RJOO 220640Z 08015KT 5000 R32R/2000N R32L/P2000N SHRA BR FEW006 SCT025 BKN050 24/22 Q1010 RMK 1ST006 3CU025 7SC050 A2983
RJOO 220600Z 07017KT 9999 VCSH FEW020 SCT030 BKN050 27/21 Q1009 RMK 1CU020 3CU030 5SC050 A2980
RJOO 220503Z 08017G27KT 040V110 9999 FEW025 SCT060 BKN/// 27/21 Q1009 RMK 1CU025 3SC060 A2982
RJOO 220500Z 08018KT 050V110 9999 FEW025 SCT060 BKN/// 27/21 Q1009
RJOO 220426Z 08020G30KT 9999 FEW025 SCT060 BKN120 27/20 Q1010 RMK 1CU025 4SC060 5AC120 A2984
RJOO 220400Z 07016KT 040V110 9999 FEW025 SCT120 BKN/// 28/21 Q1010 RMK 1CU025 3AC120 A2985
RJOO 220310Z 07020G30KT 9999 FEW025 SCT160 BKN/// 27/20 Q1011 RMK 1CU025 3AC160 A2986
RJOO 220300Z 07021KT 9999 FEW025 SCT160 BKN/// 28/20 Q1011 RMK 1CU025 3AC160 A2987
RJOO 220215Z 07018G28KT 040V100 9999 FEW025 SCT160 BKN/// 27/20 Q1012 RMK 1CU025 3AC160 A2991
RJOO 220200Z 07017KT 9999 FEW025 SCT160 BKN/// 27/20 Q1012 RMK 1CU025 3AC160 A2991
RJOO 220108Z 06017G27KT 9999 FEW020 SCT140 BKN160 25/20 Q1013 RMK 1CU020 3AC140 5AC160 A2993
RJOO 220100Z 07017KT 030V090 9999 FEW020 SCT140 BKN160 25/19 Q1013 RMK 1CU020 3AC140 5AC160 A2993
RJOO 220000Z 07014G24KT 9999 FEW020 BKN160 BKN/// 25/19 Q1014 RMK 1CU020 5AC160 A2995
RJOO 212300Z 07013G23KT 9999 FEW020 SCT160 BKN/// 24/18 Q1014 RMK 1CU020 3AC160 A2995
RJOO 212205Z 07015G25KT 9999 FEW020 SCT170 BKN/// 24/18 Q1014 RMK 1CU020 3AC170 A2995
RJOO 212200Z 07014KT 9999 FEW020 SCT170 BKN/// 24/18 Q1014 RMK 1CU020 3AC170 A2995
RJOO 212100Z 06012KT 9999 FEW020 SCT170 BKN/// 23/18 Q1014 RMK 1CU020 3AC170 A2997
RJOO 212000Z 06013KT 9999 FEW020 SCT180 BKN/// 23/18 Q1014 RMK 1CU020 3AC180 A2997
RJOO 211100Z 07010KT 9999 FEW020 BKN/// 23/19 Q1018 RMK 1CU020 A3007
RJOO 211000Z 06010KT 9999 FEW020 BKN/// 23/18 Q1017 RMK 1CU020 A3005
RJOO 210900Z 06011KT 9999 FEW020 BKN050 BKN/// 23/19 Q1016 RMK 1CU020 5SC050 A3003
RJOO 210800Z 06011KT 020V090 9999 FEW020 SCT040 BKN120 23/19 Q1016 RMK 1CU020 3SC040 5AC120 A3001
RJOO 210700Z 06012KT 9999 FEW015 BKN050 BKN120 23/19 Q1016 RMK 1CU015 5SC050 6AC120 A3001
RJOO 210600Z 06010KT 020V090 9999 FEW015 BKN045 24/19 Q1016 RMK 1CU015 6CU045 A3002
RJOO 210500Z 06009KT 030V090 9999 FEW015 BKN040 BKN060 24/19 Q1017 RMK 1CU015 5CU040 6SC060 A3003
RJOO 210400Z 04006KT 360V060 9999 FEW010 SCT020 BKN040 23/19 Q1017 RMK 1CU010 3CU020 6CU040 A3005
RJOO 210300Z 03004KT 350V080 9999 VCSH FEW010 SCT020 BKN040 22/19 Q1018 RMK 1CU010 4CU020 6CU040 A3007
RJOO 210200Z 03004KT 340V090 9999 FEW010 SCT020 BKN040 22/19 Q1019 RMK 1CU010 3CU020 6CU040 A3009
RJOO 210100Z 05003KT 350V090 9999 FEW010 SCT020 BKN040 21/18 Q1019 RMK 1CU010 4CU020 6CU040 A3010
RJOO 210000Z 01004KT 320V060 9999 FEW010 BKN020 BKN045 21/18 Q1019 RMK 1ST010 5CU020 7SC045 A3010
RJOO 202300Z 32007KT 9999 FEW010 BKN030 BKN050 19/18 Q1019 RMK 1ST010 5CU030 7SC050 A3010
RJOO 202200Z 33006KT 9999 FEW008 SCT025 BKN060 19/17 Q1018 RMK 1ST008 3CU025 6SC060 A3008